Time;durP1;ratioP1;P1;durP2;ratioP2;P2;SDS_P1;SDS_P2;PMS_P1;PMS_P2;Temp;Humidity;BMP_temperature;BMP_pressure;BME280_temperature;BME280_humidity;BME280_pressure;Samples;Min_cycle;Max_cycle;Signal;HPM_P1;HPM_P2
2022/10/09 00:00:08;;;;;;;8.85;3.42;;;;;;;8.89;78.70;101026.88;2195525;79;29756;-68
2022/10/09 00:03:12;;;;;;;5.75;3.35;;;;;;;8.86;78.73;101037.22;2186415;79;27781;-66
2022/10/09 00:06:17;;;;;;;11.18;3.08;;;;;;;8.84;78.74;101039.53;2189123;79;29106;-66
2022/10/09 00:09:19;;;;;;;10.40;3.42;;;;;;;8.80;78.74;101038.28;2170391;79;31144;-65
2022/10/09 00:12:20;;;;;;;8.95;3.27;;;;;;;8.77;78.81;101045.05;2184016;80;33409;-65
2022/10/09 00:15:22;;;;;;;6.92;4.08;;;;;;;8.75;78.91;101050.89;2169428;79;29504;-65
2022/10/09 00:18:23;;;;;;;8.45;3.83;;;;;;;8.72;78.94;101051.45;2152662;81;27958;-64
2022/10/09 00:21:31;;;;;;;8.90;3.62;;;;;;;8.69;78.92;101050.20;2162537;80;29105;-66
2022/10/09 00:24:32;;;;;;;9.60;4.45;;;;;;;8.66;78.90;101049.84;2160548;80;31270;-64
2022/10/09 00:27:33;;;;;;;6.08;3.30;;;;;;;8.61;78.92;101060.64;2179744;79;33351;-63
2022/10/09 00:30:38;;;;;;;13.38;4.28;;;;;;;8.59;78.90;101058.95;2175572;79;29680;-67
2022/10/09 00:33:39;;;;;;;7.83;3.47;;;;;;;8.55;79.00;101060.84;2191498;79;27758;-63
2022/10/09 00:36:41;;;;;;;8.73;4.40;;;;;;;8.50;79.08;101060.98;2150865;80;30248;-65
2022/10/09 00:39:42;;;;;;;6.22;3.95;;;;;;;8.45;79.25;101057.52;2145899;81;32208;-69
2022/10/09 00:42:44;;;;;;;7.15;3.85;;;;;;;8.46;79.33;101071.30;2164259;80;33045;-65
2022/10/09 00:45:53;;;;;;;9.08;4.08;;;;;;;8.44;79.38;101070.94;2161817;80;29716;-65
2022/10/09 00:49:21;;;;;;;9.25;4.30;;;;;;;8.42;79.44;101078.97;2169463;80;27632;-65
2022/10/09 00:52:23;;;;;;;13.55;4.85;;;;;;;8.40;79.45;101079.94;2173909;81;29968;-65
2022/10/09 00:55:27;;;;;;;9.13;3.75;;;;;;;8.38;79.40;101090.64;2172947;80;32253;-65
2022/10/09 00:58:28;;;;;;;8.75;3.75;;;;;;;8.34;79.44;101083.66;2175573;81;34136;-64
2022/10/09 01:01:29;;;;;;;4.83;3.52;;;;;;;8.31;79.53;101088.60;2173191;81;30564;-65
2022/10/09 01:04:31;;;;;;;9.95;3.65;;;;;;;8.28;79.47;101083.34;2169704;80;27895;-64
2022/10/09 01:07:44;;;;;;;7.80;4.03;;;;;;;8.25;79.46;101083.89;2170165;81;28673;-65
2022/10/09 01:11:26;;;;;;;6.90;3.50;;;;;;;8.20;79.61;101084.89;2167412;80;31438;-65
2022/10/09 01:14:32;;;;;;;5.70;3.33;;;;;;;8.17;79.57;101086.33;2134017;81;33436;-64
2022/10/09 01:18:04;;;;;;;5.00;3.75;;;;;;;8.13;79.55;101086.43;2148484;81;30461;-63
2022/10/09 01:21:22;;;;;;;7.22;3.67;;;;;;;8.10;79.67;101099.88;2146827;82;27717;-65
2022/10/09 01:24:42;;;;;;;8.63;3.58;;;;;;;8.06;79.61;101099.06;2132243;82;28709;-66
2022/10/09 01:27:43;;;;;;;6.62;3.67;;;;;;;8.00;79.62;101101.44;2163729;81;32095;-65
2022/10/09 01:30:45;;;;;;;5.42;3.33;;;;;;;7.97;79.66;101108.66;2168445;81;32792;-63
2022/10/09 01:33:47;;;;;;;7.92;3.58;;;;;;;7.91;79.72;101106.55;2134139;81;29683;-65
2022/10/09 01:36:49;;;;;;;5.95;3.33;;;;;;;7.88;79.72;101111.96;2171605;81;27643;-66
2022/10/09 01:39:51;;;;;;;7.03;3.77;;;;;;;7.86;79.83;101108.45;2190794;79;28860;-65
2022/10/09 01:42:52;;;;;;;5.05;3.00;;;;;;;7.83;79.84;101115.22;2147304;79;31953;-65
2022/10/09 01:46:22;;;;;;;11.03;3.70;;;;;;;7.81;79.83;101116.16;2147170;82;32898;-63
2022/10/09 01:49:44;;;;;;;4.80;3.25;;;;;;;7.78;79.82;101116.26;2127594;82;29381;-65
2022/10/09 01:52:55;;;;;;;9.90;4.30;;;;;;;7.73;79.88;101117.24;2143480;81;27858;-66
2022/10/09 01:56:07;;;;;;;7.55;4.03;;;;;;;7.70;79.91;101122.64;2145240;81;30928;-66
2022/10/09 01:59:12;;;;;;;7.78;3.37;;;;;;;7.67;79.93;101123.19;2147958;81;32428;-64
2022/10/09 02:02:13;;;;;;;;;;;;;;;7.64;79.93;101123.25;2138643;81;32990;-65
2022/10/09 02:05:24;;;;;;;9.30;3.70;;;;;;;7.59;79.93;101121.56;2153798;81;33601;-63
2022/10/09 02:08:32;;;;;;;7.95;3.70;;;;;;;7.55;79.96;101135.02;2127216;82;28311;-67
2022/10/09 02:11:35;;;;;;;8.00;3.87;;;;;;;7.51;80.04;101135.99;2139231;81;28865;-63
2022/10/09 02:14:38;;;;;;;9.98;3.90;;;;;;;7.48;80.05;101140.95;2172729;80;32129;-63
2022/10/09 02:17:48;;;;;;;6.95;3.83;;;;;;;7.44;80.03;101144.59;2171510;80;33357;-65
2022/10/09 02:20:54;;;;;;;13.48;3.80;;;;;;;7.40;79.99;101142.46;2169386;80;30601;-66
2022/10/09 02:23:56;;;;;;;5.42;3.60;;;;;;;7.36;79.91;101139.91;2166013;80;27826;-67
2022/10/09 02:26:58;;;;;;;7.28;4.50;;;;;;;7.33;79.95;101146.16;2170281;81;28889;-65
2022/10/09 02:30:00;;;;;;;9.73;3.80;;;;;;;7.28;80.01;101146.27;2171025;81;31418;-66
2022/10/09 02:33:04;;;;;;;7.55;4.10;;;;;;;7.26;79.93;101157.89;2166365;80;33377;-66
2022/10/09 02:36:06;;;;;;;8.00;4.00;;;;;;;7.21;80.03;101160.62;2187539;80;29699;-65
2022/10/09 02:39:07;;;;;;;7.75;4.83;;;;;;;7.18;79.97;101162.49;2183293;80;27672;-66
2022/10/09 02:42:09;;;;;;;12.70;4.65;;;;;;;7.13;80.00;101165.27;2176988;80;28927;-67
2022/10/09 02:45:10;;;;;;;12.07;4.12;;;;;;;7.09;79.96;101168.45;2143384;82;32194;-66
2022/10/09 02:48:11;;;;;;;14.05;5.33;;;;;;;7.07;80.06;101173.38;2143814;82;33675;-65
2022/10/09 02:51:13;;;;;;;13.38;4.22;;;;;;;7.02;80.10;101181.47;2166824;81;30599;-65
2022/10/09 02:54:15;;;;;;;11.78;4.80;;;;;;;6.99;80.12;101177.53;2162709;81;27738;-65
2022/10/09 02:57:16;;;;;;;11.88;4.47;;;;;;;6.96;80.15;101190.91;2164492;81;28677;-66
2022/10/09 03:00:18;;;;;;;14.75;4.90;;;;;;;6.93;80.21;101192.33;2148372;81;33216;-66
2022/10/09 03:03:20;;;;;;;12.63;4.65;;;;;;;6.90;80.20;101182.59;2119143;82;33437;-65
2022/10/09 03:06:24;;;;;;;10.28;4.08;;;;;;;6.87;80.17;101191.97;2138046;81;30464;-67
2022/10/09 03:09:27;;;;;;;15.93;7.33;;;;;;;6.84;80.25;101194.25;2152008;81;28330;-67
2022/10/09 03:12:29;;;;;;;11.15;6.72;;;;;;;6.81;80.29;101187.64;2134146;82;29992;-67
2022/10/09 03:15:34;;;;;;;8.63;4.72;;;;;;;6.77;80.27;101183.31;2137260;80;31447;-66
2022/10/09 03:18:36;;;;;;;6.78;4.45;;;;;;;6.74;80.31;101187.36;2139621;80;33786;-66
2022/10/09 03:21:37;;;;;;;11.68;4.17;;;;;;;6.72;80.34;101197.16;2133653;80;30061;-66
2022/10/09 03:24:39;;;;;;;8.83;4.80;;;;;;;6.68;80.38;101192.36;2145794;81;28266;-65
2022/10/09 03:27:41;;;;;;;7.33;4.78;;;;;;;6.68;80.51;101207.44;2132364;81;29414;-65
2022/10/09 03:30:42;;;;;;;13.22;4.50;;;;;;;6.64;80.53;101210.62;2169369;81;31879;-66
2022/10/09 03:33:43;;;;;;;11.80;3.98;;;;;;;6.62;80.47;101220.41;2177796;81;33421;-65
2022/10/09 03:36:44;;;;;;;12.63;4.62;;;;;;;6.59;80.59;101221.80;2130322;82;29753;-67
2022/10/09 03:39:46;;;;;;;10.05;4.92;;;;;;;6.57;80.56;101226.27;2186837;80;27718;-66
2022/10/09 03:42:47;;;;;;;11.38;5.25;;;;;;;6.56;80.60;101236.95;2194537;80;28705;-65
2022/10/09 03:45:48;;;;;;;7.70;4.50;;;;;;;6.52;80.70;101239.67;2189376;80;31170;-66
2022/10/09 03:48:50;;;;;;;8.08;4.33;;;;;;;6.50;80.62;101232.16;2196455;80;33433;-66
2022/10/09 03:51:51;;;;;;;9.83;5.12;;;;;;;6.49;80.73;101236.19;2155157;81;29397;-65
2022/10/09 03:54:52;;;;;;;10.20;4.92;;;;;;;6.46;80.74;101230.44;2187097;80;27633;-62
2022/10/09 03:57:53;;;;;;;12.68;4.50;;;;;;;6.43;80.61;101230.52;2185859;80;29948;-66
2022/10/09 04:00:55;;;;;;;7.85;4.53;;;;;;;6.40;80.66;101243.87;2182567;80;32033;-66
2022/10/09 04:03:56;;;;;;;10.70;3.90;;;;;;;6.38;80.68;101243.88;2120002;83;34012;-65
2022/10/09 04:06:57;;;;;;;10.55;4.60;;;;;;;6.36;80.67;101245.72;2140408;82;29522;-63
2022/10/09 04:09:58;;;;;;;8.73;4.22;;;;;;;6.34;80.68;101249.30;2138938;82;27585;-66
2022/10/09 04:12:59;;;;;;;8.98;4.25;;;;;;;6.30;80.72;101249.80;2120304;83;29126;-66
2022/10/09 04:16:01;;;;;;;9.70;4.25;;;;;;;6.28;80.69;101257.40;2142303;81;32191;-66
2022/10/09 04:19:02;;;;;;;12.13;4.40;;;;;;;6.24;80.66;101261.87;2130862;80;33441;-66
2022/10/09 04:22:03;;;;;;;7.08;4.22;;;;;;;6.22;80.76;101257.91;2139701;82;29754;-65
2022/10/09 04:25:05;;;;;;;9.85;4.15;;;;;;;6.19;80.68;101257.09;2141623;81;27915;-66
2022/10/09 04:28:07;;;;;;;10.23;3.77;;;;;;;6.17;80.80;101261.56;2143796;81;28682;-65
2022/10/09 04:31:08;;;;;;;10.45;3.55;;;;;;;6.14;80.83;101262.93;2150134;81;31529;-62
2022/10/09 04:34:10;;;;;;;6.15;4.08;;;;;;;6.12;80.90;101269.62;2129843;81;32739;-66
2022/10/09 04:37:11;;;;;;;17.80;3.52;;;;;;;6.10;80.84;101268.76;2146216;81;29270;-62
2022/10/09 04:40:12;;;;;;;13.43;4.00;;;;;;;6.07;80.96;101267.00;2158877;82;27784;-66
2022/10/09 04:43:13;;;;;;;12.65;4.40;;;;;;;6.06;80.94;101264.37;2142013;81;28709;-62
2022/10/09 04:46:14;;;;;;;9.08;3.77;;;;;;;6.04;81.00;101267.51;2124315;82;30512;-65
2022/10/09 04:49:16;;;;;;;6.45;3.62;;;;;;;6.02;80.96;101267.55;2138752;82;33388;-65
2022/10/09 04:52:18;;;;;;;10.10;4.42;;;;;;;6.01;81.00;101275.53;2140618;82;29510;-65
2022/10/09 04:55:19;;;;;;;8.85;4.37;;;;;;;5.97;80.95;101277.33;2146642;82;27612;-65
2022/10/09 04:58:20;;;;;;;6.10;4.10;;;;;;;5.96;81.00;101282.69;2145059;82;29178;-65
2022/10/09 05:01:26;;;;;;;11.70;4.10;;;;;;;5.94;81.00;101282.69;2139603;82;30783;-67
2022/10/09 05:04:27;;;;;;;8.10;3.77;;;;;;;5.93;81.07;101288.91;2098703;82;33399;-64
2022/10/09 05:07:29;;;;;;;9.45;4.35;;;;;;;5.90;81.06;101288.95;2094538;84;30607;-65
2022/10/09 05:10:32;;;;;;;13.10;5.62;;;;;;;5.88;81.09;101295.63;2087207;84;27817;-62
2022/10/09 05:13:36;;;;;;;14.78;9.13;;;;;;;5.88;81.12;101303.61;2139943;82;28865;-65
2022/10/09 05:16:37;;;;;;;25.97;14.03;;;;;;;5.88;81.17;101302.71;2145131;81;31037;-65
2022/10/09 05:19:39;;;;;;;14.03;10.10;;;;;;;5.87;81.27;101305.84;2152467;81;33968;-66
2022/10/09 05:22:45;;;;;;;15.43;9.15;;;;;;;5.89;81.28;101305.80;2157421;81;29685;-65
2022/10/09 05:26:03;;;;;;;13.60;7.45;;;;;;;5.88;81.28;101312.91;2174180;81;27753;-61
2022/10/09 05:29:05;;;;;;;12.90;6.53;;;;;;;5.90;81.47;101313.78;2167536;81;28698;-62
2022/10/09 05:32:06;;;;;;;11.15;6.08;;;;;;;5.92;81.49;101311.98;2175354;81;30431;-65
2022/10/09 05:35:08;;;;;;;9.65;5.83;;;;;;;5.93;81.47;101307.09;2173295;81;32985;-66
2022/10/09 05:38:09;;;;;;;9.03;6.05;;;;;;;5.95;81.58;101312.38;2173480;81;29116;-66
2022/10/09 05:41:14;;;;;;;8.65;6.20;;;;;;;5.98;81.58;101318.98;2171392;81;27529;-65
2022/10/09 05:44:16;;;;;;;9.38;5.40;;;;;;;6.01;81.60;101322.08;2168200;81;28770;-65
2022/10/09 05:47:18;;;;;;;14.23;6.40;;;;;;;6.03;81.66;101323.84;2170310;81;31458;-65
2022/10/09 05:50:20;;;;;;;17.62;12.05;;;;;;;6.08;81.81;101330.41;2175842;81;33341;-65
2022/10/09 05:53:21;;;;;;;25.80;16.27;;;;;;;6.13;81.88;101330.34;2147339;81;30155;-62
2022/10/09 05:56:27;;;;;;;21.80;14.93;;;;;;;6.18;82.04;101324.52;2132032;82;27637;-65
2022/10/09 05:59:28;;;;;;;45.65;27.17;;;;;;;6.24;82.05;101332.37;2161650;81;29008;-65
2022/10/09 06:02:29;;;;;;;72.47;38.23;;;;;;;6.32;82.29;101339.81;2191268;80;32372;-65
2022/10/09 06:05:30;;;;;;;99.87;43.08;;;;;;;6.42;82.43;101342.32;2141450;82;34159;-63
2022/10/09 06:08:35;;;;;;;101.30;38.55;;;;;;;6.54;82.61;101344.78;2151123;81;29696;-65
2022/10/09 06:11:39;;;;;;;94.32;38.38;;;;;;;6.66;82.75;101347.27;2157692;81;27885;-65
2022/10/09 06:14:40;;;;;;;80.10;30.95;;;;;;;6.79;82.87;101349.72;2169780;81;29936;-65
2022/10/09 06:17:41;;;;;;;48.33;21.25;;;;;;;6.91;82.91;101352.63;2166389;81;31456;-65
2022/10/09 06:20:59;;;;;;;27.65;14.78;;;;;;;7.01;82.86;101354.69;2157787;81;33435;-65
2022/10/09 06:24:02;;;;;;;21.77;11.60;;;;;;;7.11;82.90;101353.17;2185240;81;29332;-65
2022/10/09 06:27:03;;;;;;;33.63;13.68;;;;;;;7.23;82.98;101356.03;2128289;82;27812;-61
2022/10/09 06:30:07;;;;;;;37.40;15.55;;;;;;;7.33;82.98;101358.08;2170555;81;29071;-64
2022/10/09 06:33:08;;;;;;;20.02;9.95;;;;;;;7.45;83.02;101370.30;2159080;81;31097;-63
2022/10/09 06:36:21;;;;;;;18.02;9.53;;;;;;;7.56;83.03;101368.76;2148096;81;33378;-64
2022/10/09 06:39:25;;;;;;;27.22;10.03;;;;;;;7.67;83.04;101373.88;2142908;81;29337;-64
2022/10/09 06:42:26;;;;;;;16.12;8.73;;;;;;;7.81;83.17;101375.81;2145945;81;28216;-62
2022/10/09 06:45:27;;;;;;;15.75;6.92;;;;;;;7.95;83.13;101382.16;2158383;81;29115;-64
2022/10/09 06:48:30;;;;;;;17.45;6.33;;;;;;;8.10;83.13;101382.77;2142147;81;32192;-62
2022/10/09 06:51:33;;;;;;;9.48;5.95;;;;;;;8.25;83.14;101387.77;2138796;81;33253;-63
2022/10/09 06:54:34;;;;;;;14.90;5.92;;;;;;;8.41;83.12;101384.28;2136961;80;29736;-63
2022/10/09 06:57:36;;;;;;;13.58;5.50;;;;;;;8.58;83.06;101390.61;2172477;80;27692;-65
2022/10/09 07:00:37;;;;;;;17.00;6.58;;;;;;;8.73;82.76;101391.16;2171157;81;29559;-63
2022/10/09 07:03:42;;;;;;;12.93;5.08;;;;;;;8.88;82.71;101392.55;2168578;80;31114;-64
2022/10/09 07:06:46;;;;;;;10.45;4.90;;;;;;;9.04;82.49;101395.25;2170074;81;32974;-63
2022/10/09 07:09:47;;;;;;;13.72;4.87;;;;;;;9.21;82.46;101403.30;2170817;81;28814;-63
2022/10/09 07:12:49;;;;;;;11.55;4.03;;;;;;;9.39;82.37;101400.14;2171554;80;27835;-64
2022/10/09 07:15:50;;;;;;;7.30;3.50;;;;;;;9.55;82.17;101401.95;2170405;80;29493;-64
2022/10/09 07:18:51;;;;;;;9.93;4.85;;;;;;;9.73;81.92;101404.55;2169062;81;31442;-63
2022/10/09 07:21:52;;;;;;;11.73;4.30;;;;;;;9.92;81.79;101415.22;2170335;81;33403;-64
2022/10/09 07:24:54;;;;;;;13.45;5.10;;;;;;;10.11;81.72;101409.71;2119341;83;29709;-64
2022/10/09 07:27:55;;;;;;;8.40;4.70;;;;;;;10.33;81.58;101412.64;2130016;82;27843;-64
2022/10/09 07:30:59;;;;;;;12.30;3.95;;;;;;;10.56;81.37;101413.73;2120058;83;29150;-64
2022/10/09 07:34:00;;;;;;;13.62;4.75;;;;;;;10.81;81.09;101418.77;2122738;82;31701;-65
2022/10/09 07:37:02;;;;;;;8.53;3.17;;;;;;;11.03;80.98;101417.16;2137346;82;34294;-64
2022/10/09 07:40:05;;;;;;;10.72;2.87;;;;;;;11.28;80.88;101420.80;2161735;81;29772;-65
2022/10/09 07:43:06;;;;;;;11.00;2.90;;;;;;;11.52;80.47;101416.37;2149554;82;28167;-64
2022/10/09 07:46:11;;;;;;;7.60;2.65;;;;;;;11.77;80.11;101420.39;2141586;83;29938;-65
2022/10/09 07:49:13;;;;;;;9.25;3.37;;;;;;;11.98;79.73;101425.47;2135559;83;31049;-65
2022/10/09 07:52:14;;;;;;;10.05;4.28;;;;;;;12.23;79.78;101429.92;2136791;82;33455;-65
2022/10/09 07:55:15;;;;;;;8.93;3.08;;;;;;;12.45;79.41;101421.00;2145603;82;29776;-64
2022/10/09 07:58:17;;;;;;;9.53;3.02;;;;;;;12.62;78.92;101428.41;2146174;82;27734;-65
2022/10/09 08:01:19;;;;;;;7.62;2.85;;;;;;;12.76;78.44;101426.03;2137725;82;29213;-65
2022/10/09 08:04:21;;;;;;;8.58;2.80;;;;;;;12.94;78.16;101430.70;2138662;82;31752;-64
2022/10/09 08:07:22;;;;;;;11.15;3.62;;;;;;;13.07;77.57;101432.83;2148488;82;33008;-65
2022/10/09 08:10:24;;;;;;;6.17;2.95;;;;;;;13.14;76.87;101430.76;2146914;82;30064;-64
2022/10/09 08:13:25;;;;;;;9.40;2.50;;;;;;;13.22;77.26;101429.98;2144347;82;27700;-64
2022/10/09 08:16:27;;;;;;;6.12;2.60;;;;;;;13.31;76.73;101433.20;2141192;82;29871;-65
2022/10/09 08:19:29;;;;;;;5.03;2.87;;;;;;;13.32;76.37;101433.13;2128193;83;31448;-65
2022/10/09 08:22:30;;;;;;;7.80;2.70;;;;;;;13.37;76.17;101434.30;2138739;82;33470;-65
2022/10/09 08:25:35;;;;;;;7.75;3.12;;;;;;;13.37;76.17;101434.30;2133195;82;29446;-65
2022/10/09 08:28:36;;;;;;;10.45;2.58;;;;;;;13.42;75.64;101436.81;2127926;82;28363;-65
2022/10/09 08:31:38;;;;;;;10.10;3.40;;;;;;;13.42;75.50;101440.84;2129846;82;29971;-65
2022/10/09 08:34:39;;;;;;;9.05;3.62;;;;;;;13.44;75.26;101440.31;2120477;81;31443;-65
2022/10/09 08:37:40;;;;;;;14.10;6.10;;;;;;;13.45;75.13;101432.65;2134650;82;33800;-65
2022/10/09 08:40:53;;;;;;;10.08;3.17;;;;;;;13.48;74.84;101445.49;2132627;82;30553;-65
2022/10/09 08:44:05;;;;;;;10.58;2.58;;;;;;;13.50;74.68;101442.27;2149080;81;27863;-65
2022/10/09 08:47:39;;;;;;;7.83;2.98;;;;;;;13.54;74.55;101440.80;2156013;81;29104;-66
2022/10/09 08:50:46;;;;;;;7.00;2.85;;;;;;;13.63;74.26;101440.37;2149299;81;31049;-65
2022/10/09 08:54:04;;;;;;;6.70;2.80;;;;;;;13.63;74.26;101440.37;2154580;81;32696;-64
2022/10/09 08:57:13;;;;;;;10.15;3.02;;;;;;;13.68;73.97;101446.45;2017104;87;29719;-65
2022/10/09 09:00:19;;;;;;;8.25;3.42;;;;;;;13.71;73.61;101444.97;2016040;87;28403;-64
2022/10/09 09:04:00;;;;;;;8.83;2.27;;;;;;;13.74;73.46;101450.67;1991216;87;28491;-65
2022/10/09 09:07:27;;;;;;;6.22;2.83;;;;;;;13.78;73.61;101449.12;2010791;87;31901;-65
2022/10/09 09:10:45;;;;;;;12.80;2.90;;;;;;;13.90;73.38;101454.92;2008826;87;33239;-65
2022/10/09 09:14:03;;;;;;;7.72;2.87;;;;;;;13.97;73.11;101449.64;2025226;86;29530;-65
2022/10/09 09:17:31;;;;;;;8.15;2.33;;;;;;;14.00;72.48;101448.61;2042723;85;27864;-65
2022/10/09 09:20:56;;;;;;;8.58;2.55;;;;;;;14.05;72.67;101447.48;2043545;85;28542;-65
2022/10/09 09:24:04;;;;;;;7.37;2.35;;;;;;;14.10;72.29;101448.13;2049847;85;31230;-66
2022/10/09 09:27:21;;;;;;;12.88;3.20;;;;;;;14.16;72.03;101449.66;2045169;86;33278;-65
2022/10/09 09:30:33;;;;;;;10.23;2.60;;;;;;;14.24;71.82;101446.61;2041367;86;29400;-65
2022/10/09 09:34:07;;;;;;;7.60;2.25;;;;;;;14.29;71.61;101444.58;2086712;82;27802;-65
2022/10/09 09:37:11;;;;;;;5.33;2.00;;;;;;;14.36;71.41;101451.45;2156004;81;29093;-65
2022/10/09 09:40:15;;;;;;;9.00;2.60;;;;;;;14.40;70.98;101447.63;2156427;81;31205;-65
2022/10/09 09:43:23;;;;;;;10.90;2.77;;;;;;;14.48;70.80;101443.72;2155953;81;34822;-64
2022/10/09 09:46:28;;;;;;;4.87;2.08;;;;;;;14.52;70.37;101442.63;2160517;81;28802;-65
2022/10/09 09:49:29;;;;;;;6.92;2.02;;;;;;;14.53;70.29;101438.49;2181576;80;27802;-66
2022/10/09 09:52:38;;;;;;;9.43;1.80;;;;;;;14.58;70.35;101436.92;2178879;81;29085;-66
2022/10/09 09:55:39;;;;;;;7.53;1.95;;;;;;;14.62;69.72;101437.67;2170386;81;31474;-66
2022/10/09 09:58:48;;;;;;;6.78;1.72;;;;;;;14.59;69.12;101433.28;2169639;80;48451;-67
2022/10/09 10:02:03;;;;;;;5.50;2.20;;;;;;;14.64;68.88;101435.78;2194187;79;30537;-67
2022/10/09 10:05:17;;;;;;;;;;;;;;;14.66;68.82;101436.09;2195204;79;27705;-67
2022/10/09 10:08:29;;;;;;;11.57;2.25;;;;;;;14.69;68.53;101437.33;2193741;79;29037;-66
2022/10/09 10:11:33;;;;;;;12.45;1.72;;;;;;;14.71;68.26;101437.23;2185224;79;31585;-66
2022/10/09 10:14:35;;;;;;;4.97;1.40;;;;;;;14.71;67.87;101425.99;2190319;80;35230;-67
2022/10/09 10:17:37;;;;;;;7.28;1.75;;;;;;;14.71;67.41;101435.89;2187338;80;29364;-67
2022/10/09 10:21:08;;;;;;;10.63;2.08;;;;;;;14.72;67.83;101433.59;2189125;80;28373;-67
2022/10/09 10:24:12;;;;;;;8.13;1.62;;;;;;;14.74;67.27;101439.80;2177720;80;27698;-67
2022/10/09 10:27:38;;;;;;;6.03;1.50;;;;;;;14.73;67.24;101440.25;2145873;82;32233;-67
2022/10/09 10:30:41;;;;;;;7.22;2.08;;;;;;;14.72;67.01;101434.48;2102578;81;33792;-64
2022/10/09 10:33:43;;;;;;;10.38;4.90;;;;;;;14.58;66.83;101418.05;2143826;80;29806;-62
2022/10/09 10:36:46;;;;;;;10.23;2.15;;;;;;;14.70;67.12;101426.94;2126743;83;27655;-62
2022/10/09 10:40:21;;;;;;;4.62;1.67;;;;;;;14.64;66.80;101404.27;2168274;80;29229;-62
2022/10/09 10:43:33;;;;;;;5.58;1.90;;;;;;;14.76;66.12;101425.76;2176792;79;31604;-62
2022/10/09 10:46:47;;;;;;;5.28;1.67;;;;;;;14.81;65.71;101430.43;2188008;79;33006;-64
2022/10/09 10:49:49;;;;;;;6.17;2.22;;;;;;;14.84;65.51;101433.47;2183156;80;29125;-65
2022/10/09 10:53:26;;;;;;;7.70;1.75;;;;;;;14.93;64.90;101434.84;2194813;79;27692;-62
2022/10/09 10:56:50;;;;;;;8.53;1.90;;;;;;;14.82;64.29;101413.79;2126037;81;29922;-62
2022/10/09 11:00:08;;;;;;;8.10;1.62;;;;;;;14.82;64.29;101413.79;2135895;81;32447;-62
2022/10/09 11:03:39;;;;;;;8.13;2.20;;;;;;;15.02;64.92;101428.97;2129314;81;33344;-63
2022/10/09 11:07:04;;;;;;;2.90;1.70;;;;;;;15.10;65.00;101420.48;2120481;82;30482;-62
2022/10/09 11:10:42;;;;;;;7.25;2.08;;;;;;;15.31;64.74;101434.70;2134546;82;27745;-63
2022/10/09 11:14:13;;;;;;;6.85;1.95;;;;;;;15.45;64.20;101428.14;2129034;81;28722;-61
2022/10/09 11:17:35;;;;;;;7.40;2.05;;;;;;;15.50;63.04;101428.75;2141222;81;31668;-63
2022/10/09 11:21:01;;;;;;;2.90;1.40;;;;;;;15.55;63.23;101426.30;2130251;82;34194;-62
2022/10/09 11:24:41;;;;;;;5.00;1.62;;;;;;;15.61;63.53;101421.44;2129630;82;30552;-62
2022/10/09 11:27:54;;;;;;;6.83;1.80;;;;;;;15.72;62.51;101420.02;2133692;82;27806;-64
2022/10/09 11:31:13;;;;;;;3.30;1.50;;;;;;;15.77;62.63;101420.63;2132228;81;29087;-63
2022/10/09 11:34:23;;;;;;;6.12;1.80;;;;;;;15.85;61.88;101412.10;2116864;81;31047;-67
2022/10/09 11:37:29;;;;;;;6.30;1.50;;;;;;;15.91;61.65;101414.52;2136691;81;33446;-64
2022/10/09 11:40:39;;;;;;;5.37;1.62;;;;;;;16.02;61.90;101405.83;2151188;80;29347;-65
2022/10/09 11:43:48;;;;;;;4.78;1.35;;;;;;;16.05;60.38;101408.38;2128110;81;27639;-63
2022/10/09 11:47:21;;;;;;;2.95;1.10;;;;;;;16.07;60.43;101404.61;2123771;82;29104;-63
2022/10/09 11:50:44;;;;;;;6.78;1.75;;;;;;;16.08;60.31;101403.66;2189854;79;30955;-63
2022/10/09 11:53:47;;;;;;;5.83;1.95;;;;;;;16.06;60.49;101402.87;2180046;78;33541;-63
2022/10/09 11:56:58;;;;;;;5.90;1.57;;;;;;;16.01;59.88;101401.38;2143856;81;30140;-63
2022/10/09 12:00:06;;;;;;;5.42;2.00;;;;;;;15.92;59.63;101402.26;2156390;81;28370;-64
2022/10/09 12:03:26;;;;;;;4.72;1.75;;;;;;;15.84;59.95;101396.84;2130135;81;28651;-61
2022/10/09 12:06:29;;;;;;;6.65;1.98;;;;;;;15.82;59.07;101395.59;2119531;83;32239;-62
2022/10/09 12:09:42;;;;;;;6.75;1.32;;;;;;;15.80;58.87;101385.34;2089998;83;33317;-63
2022/10/09 12:12:44;;;;;;;4.90;1.45;;;;;;;15.77;58.92;101381.45;2091422;83;30701;-63
2022/10/09 12:15:50;;;;;;;4.35;1.17;;;;;;;15.69;58.17;101372.90;2098437;82;27905;-64
2022/10/09 12:18:52;;;;;;;3.37;1.40;;;;;;;15.65;58.74;101369.01;2106660;82;30149;-64
2022/10/09 12:21:59;;;;;;;5.45;1.50;;;;;;;15.67;58.35;101367.56;2130271;82;31429;-64
2022/10/09 12:25:29;;;;;;;4.83;1.20;;;;;;;15.60;58.60;101364.31;2121709;82;34207;-63
2022/10/09 12:28:56;;;;;;;5.35;1.47;;;;;;;15.57;58.71;101367.67;2114212;81;29320;-63
2022/10/09 12:32:03;;;;;;;5.42;1.82;;;;;;;15.55;58.42;101362.37;2104647;83;27767;-63
2022/10/09 12:35:24;;;;;;;6.08;1.75;;;;;;;15.49;58.43;101362.68;2117684;83;28663;-63
2022/10/09 12:38:30;;;;;;;5.72;1.65;;;;;;;15.48;58.41;101361.79;2116935;82;31067;-63
2022/10/09 12:41:33;;;;;;;3.10;1.30;;;;;;;15.48;58.37;101359.09;2125211;80;33236;-62
2022/10/09 12:44:38;;;;;;;4.47;1.15;;;;;;;15.51;58.30;101358.08;2167558;80;30633;-64
2022/10/09 12:47:40;;;;;;;6.10;1.10;;;;;;;15.48;57.70;101349.64;2119882;81;27647;-64
2022/10/09 12:50:41;;;;;;;8.53;1.65;;;;;;;15.47;57.48;101342.48;2109330;81;29137;-65
2022/10/09 12:53:49;;;;;;;3.05;1.10;;;;;;;15.47;57.11;101344.33;2127739;81;31242;-65
2022/10/09 12:56:52;;;;;;;4.15;1.25;;;;;;;15.48;57.63;101344.73;2212526;78;33421;-63
2022/10/09 12:59:54;;;;;;;7.30;2.02;;;;;;;15.51;57.51;101347.27;2200298;79;29347;-65
2022/10/09 13:02:55;;;;;;;4.75;2.52;;;;;;;15.55;57.74;101342.56;2193258;79;27756;-65
2022/10/09 13:05:57;;;;;;;3.47;1.27;;;;;;;15.60;57.54;101347.26;2170198;79;29070;-65
2022/10/09 13:09:03;;;;;;;2.37;0.70;;;;;;;15.61;56.60;101346.30;2195688;79;32264;-64
2022/10/09 13:12:22;;;;;;;4.35;1.10;;;;;;;15.60;56.59;101346.77;2156316;80;33637;-63
2022/10/09 13:15:33;;;;;;;4.42;1.25;;;;;;;15.63;56.05;101344.39;2127325;82;29727;-63
2022/10/09 13:18:37;;;;;;;4.70;0.95;;;;;;;15.65;56.31;101339.29;2111821;82;27960;-66
2022/10/09 13:21:38;;;;;;;3.58;0.80;;;;;;;15.67;55.15;101340.55;2180434;80;28771;-65
2022/10/09 13:24:40;;;;;;;3.27;0.72;;;;;;;15.61;54.07;101333.66;2166506;80;31775;-66
2022/10/09 13:27:42;;;;;;;3.15;1.55;;;;;;;15.61;54.93;101330.95;2135593;82;33839;-65
2022/10/09 13:30:43;;;;;;;4.28;1.27;;;;;;;15.61;55.01;101326.05;2153167;81;29747;-64
2022/10/09 13:33:46;;;;;;;3.75;1.15;;;;;;;15.63;55.50;101322.78;2144221;81;27798;-63
2022/10/09 13:36:47;;;;;;;7.50;1.27;;;;;;;15.64;55.62;101321.34;2123644;82;29082;-62
2022/10/09 13:39:54;;;;;;;3.50;1.10;;;;;;;15.64;55.25;101316.39;2147407;80;31224;-62
2022/10/09 13:43:00;;;;;;;2.70;1.17;;;;;;;15.60;55.35;101318.89;2151601;81;32390;-64
2022/10/09 13:46:02;;;;;;;5.15;1.22;;;;;;;15.58;55.36;101320.80;2147889;81;30430;-63
2022/10/09 13:49:04;;;;;;;3.00;1.00;;;;;;;15.55;54.82;101316.91;2164276;80;28089;-62
2022/10/09 13:52:06;;;;;;;5.37;1.05;;;;;;;15.49;55.36;101312.72;2157231;81;28689;-62
2022/10/09 13:55:09;;;;;;;3.08;0.95;;;;;;;15.44;54.98;101321.08;2142871;81;31054;-62
2022/10/09 13:58:12;;;;;;;5.53;1.42;;;;;;;15.40;55.25;101317.25;2153124;82;33150;-61
2022/10/09 14:01:14;;;;;;;7.87;1.17;;;;;;;15.36;54.69;101312.99;2171325;81;29714;-62
2022/10/09 14:04:16;;;;;;;3.25;1.45;;;;;;;15.32;55.07;101311.80;2163783;81;28261;-67
2022/10/09 14:07:18;;;;;;;3.37;1.02;;;;;;;15.28;54.93;101310.70;2142325;81;29889;-62
2022/10/09 14:10:21;;;;;;;4.55;1.35;;;;;;;15.25;54.86;101312.21;2130846;81;32098;-62
2022/10/09 14:13:23;;;;;;;4.22;1.10;;;;;;;15.17;54.23;101313.47;2136990;81;33100;-64
2022/10/09 14:16:26;;;;;;;5.65;0.93;;;;;;;15.08;53.94;101308.58;2156142;80;30568;-63
2022/10/09 14:19:28;;;;;;;8.40;1.42;;;;;;;15.01;53.49;101308.03;2143453;80;27963;-63
2022/10/09 14:22:30;;;;;;;5.30;1.20;;;;;;;14.95;53.80;101303.42;2155700;80;28694;-63
2022/10/09 14:25:33;;;;;;;6.40;1.22;;;;;;;14.92;53.67;101300.39;2165024;80;31975;-62
2022/10/09 14:28:35;;;;;;;2.60;0.98;;;;;;;14.85;53.84;101298.49;2141772;81;33046;-63